Time;durP1;ratioP1;P1;durP2;ratioP2;P2;SDS_P1;SDS_P2;PMS_P1;PMS_P2;Temp;Humidity;BMP_temperature;BMP_pressure;BME280_temperature;BME280_humidity;BME280_pressure;Samples;Min_cycle;Max_cycle;Signal;HPM_P1;HPM_P2
2021/10/13 00:00:08;;;;;;;5.90;2.20;;;6.90;99.90;;;;;;5036046;28;20051;-68
2021/10/13 00:02:34;;;;;;;3.92;2.03;;;7.00;99.90;;;;;;5052648;28;20041;-68
2021/10/13 00:05:00;;;;;;;7.57;2.20;;;7.10;99.90;;;;;;5036360;28;20070;-68
2021/10/13 00:07:25;;;;;;;10.80;2.60;;;7.20;99.90;;;;;;5053849;28;20441;-68
2021/10/13 00:09:51;;;;;;;7.20;2.25;;;7.10;99.90;;;;;;5036294;28;20048;-68
2021/10/13 00:12:17;;;;;;;10.75;2.10;;;7.20;99.90;;;;;;5051923;28;20112;-68
2021/10/13 00:14:43;;;;;;;6.70;2.63;;;7.20;99.90;;;;;;5034241;28;20045;-68
2021/10/13 00:17:09;;;;;;;8.02;2.30;;;7.30;99.90;;;;;;5053758;28;20036;-68
2021/10/13 00:19:35;;;;;;;4.47;2.00;;;7.30;99.90;;;;;;5033327;28;20545;-68
2021/10/13 00:22:00;;;;;;;8.20;2.10;;;7.30;99.90;;;;;;5035521;28;20052;-68
2021/10/13 00:24:26;;;;;;;6.30;2.03;;;7.40;99.90;;;;;;5054428;28;20087;-68
2021/10/13 00:26:52;;;;;;;4.90;1.83;;;7.40;99.90;;;;;;5022730;28;20040;-68
2021/10/13 00:29:18;;;;;;;5.10;2.03;;;7.40;99.90;;;;;;5050542;28;20418;-68
2021/10/13 00:31:43;;;;;;;5.47;1.92;;;7.40;99.90;;;;;;5035289;28;20037;-68
2021/10/13 00:34:09;;;;;;;4.68;1.80;;;7.40;99.90;;;;;;5048550;28;20367;-68
2021/10/13 00:36:34;;;;;;;7.60;1.70;;;7.40;99.90;;;;;;5024063;28;20037;-68
2021/10/13 00:39:00;;;;;;;4.25;1.75;;;7.50;99.90;;;;;;5034143;28;20049;-68
2021/10/13 00:41:25;;;;;;;5.72;1.80;;;7.50;99.90;;;;;;5034729;28;20033;-68
2021/10/13 00:43:51;;;;;;;5.80;2.28;;;7.50;99.90;;;;;;5016808;28;20048;-68
2021/10/13 00:46:17;;;;;;;8.32;2.10;;;7.50;99.90;;;;;;5052434;28;20060;-68
2021/10/13 00:48:42;;;;;;;5.15;1.70;;;7.50;99.90;;;;;;5034005;28;20044;-68
2021/10/13 00:51:08;;;;;;;5.75;1.75;;;7.50;99.90;;;;;;5034822;28;20040;-68
2021/10/13 00:53:35;;;;;;;8.20;2.00;;;7.50;99.90;;;;;;5031240;28;20078;-68
2021/10/13 00:56:00;;;;;;;7.85;1.83;;;7.50;99.90;;;;;;5032189;28;20037;-68
2021/10/13 00:58:26;;;;;;;3.20;1.83;;;7.50;99.90;;;;;;5033323;28;20124;-68
2021/10/13 01:01:01;;;;;;;6.95;1.88;;;7.50;99.90;;;;;;5031981;28;20056;-68
2021/10/13 01:03:42;;;;;;;4.63;1.95;;;7.60;99.90;;;;;;5017211;28;20045;-68
2021/10/13 01:06:32;;;;;;;7.38;2.03;;;7.50;99.90;;;;;;5027921;28;20114;-68
2021/10/13 01:09:21;;;;;;;7.03;2.30;;;7.60;99.90;;;;;;5004252;28;20108;-68
2021/10/13 01:11:54;;;;;;;5.30;1.60;;;7.40;99.90;;;;;;5010779;28;20119;-68
2021/10/13 01:14:34;;;;;;;3.55;1.73;;;7.40;99.90;;;;;;5008242;28;20477;-68
2021/10/13 01:17:22;;;;;;;3.67;1.50;;;7.40;99.90;;;;;;5001691;28;20034;-68
2021/10/13 01:19:56;;;;;;;5.75;1.92;;;7.30;99.90;;;;;;5006931;28;20085;-68
2021/10/13 01:23:06;;;;;;;4.70;2.00;;;7.30;99.90;;;;;;4994317;28;20046;-68
2021/10/13 01:25:46;;;;;;;5.10;2.10;;;7.20;99.90;;;;;;5008753;28;20069;-68
2021/10/13 01:28:28;;;;;;;3.28;1.42;;;7.20;99.90;;;;;;5009369;28;20046;-68
2021/10/13 01:31:00;;;;;;;5.28;1.92;;;7.20;99.90;;;;;;5010416;28;20049;-68
2021/10/13 01:33:32;;;;;;;3.28;1.63;;;7.10;99.90;;;;;;5020971;28;20042;-68
2021/10/13 01:36:03;;;;;;;3.72;1.67;;;7.20;99.90;;;;;;5008414;28;20083;-68
2021/10/13 01:38:32;;;;;;;4.70;2.00;;;7.20;99.90;;;;;;5009456;28;20490;-68
2021/10/13 01:41:02;;;;;;;4.03;1.60;;;7.20;99.90;;;;;;5010758;28;20048;-68
2021/10/13 01:43:34;;;;;;;3.05;1.50;;;7.20;99.90;;;;;;5008246;28;20055;-68
2021/10/13 01:46:03;;;;;;;5.00;1.88;;;7.20;99.90;;;;;;5008572;28;20053;-68
2021/10/13 01:48:29;;;;;;;3.88;1.60;;;7.20;99.90;;;;;;4994376;28;20076;-68
2021/10/13 01:50:55;;;;;;;4.25;2.00;;;7.30;99.90;;;;;;4991941;28;20097;-68
2021/10/13 01:53:24;;;;;;;2.47;1.40;;;7.30;99.90;;;;;;5009514;28;20049;-68
2021/10/13 01:55:51;;;;;;;5.15;1.80;;;7.30;99.90;;;;;;5009439;28;20049;-68
2021/10/13 01:58:18;;;;;;;5.70;1.90;;;7.30;99.90;;;;;;5006327;28;20142;-68
2021/10/13 02:00:47;;;;;;;4.43;1.63;;;7.40;99.90;;;;;;5004864;28;20041;-68
2021/10/13 02:03:14;;;;;;;4.40;1.70;;;7.40;99.90;;;;;;5008828;28;20038;-68
2021/10/13 02:05:41;;;;;;;7.13;1.88;;;7.40;99.90;;;;;;5009864;28;20124;-68
2021/10/13 02:08:07;;;;;;;2.78;1.67;;;7.30;99.90;;;;;;5019951;28;20053;-68
2021/10/13 02:10:35;;;;;;;3.45;1.50;;;7.30;99.90;;;;;;5031166;28;20045;-68
2021/10/13 02:13:03;;;;;;;2.15;1.52;;;7.30;99.90;;;;;;5027011;28;20049;-68
2021/10/13 02:15:30;;;;;;;4.53;1.50;;;7.30;99.90;;;;;;5027072;28;20044;-68
2021/10/13 02:17:58;;;;;;;6.07;1.55;;;7.30;99.90;;;;;;5031760;28;20049;-68
2021/10/13 02:20:26;;;;;;;6.80;1.75;;;7.30;99.90;;;;;;5028206;28;20039;-68
2021/10/13 02:22:58;;;;;;;5.60;1.73;;;7.30;99.90;;;;;;5030160;28;20060;-68
2021/10/13 02:25:35;;;;;;;3.50;1.30;;;7.40;99.90;;;;;;5029889;28;20045;-68
2021/10/13 02:28:05;;;;;;;5.00;1.58;;;7.40;99.90;;;;;;5018716;28;20545;-68
2021/10/13 02:30:31;;;;;;;3.15;1.33;;;7.40;99.90;;;;;;5011448;28;20213;-68
2021/10/13 02:32:56;;;;;;;9.90;1.80;;;7.30;99.90;;;;;;5029248;28;20152;-68
2021/10/13 02:35:22;;;;;;;5.57;1.45;;;7.20;99.90;;;;;;5031214;28;20040;-68
2021/10/13 02:37:48;;;;;;;2.80;1.60;;;7.20;99.90;;;;;;5030513;28;20088;-68
2021/10/13 02:40:14;;;;;;;6.10;1.45;;;7.20;99.90;;;;;;5011077;28;20049;-68
2021/10/13 02:42:40;;;;;;;3.95;1.83;;;7.20;99.90;;;;;;5012078;28;20045;-68
2021/10/13 02:45:06;;;;;;;5.15;1.38;;;7.10;99.90;;;;;;5030280;28;20045;-68
2021/10/13 02:47:46;;;;;;;5.32;1.50;;;7.10;99.90;;;;;;5025206;28;20040;-68
2021/10/13 02:50:22;;;;;;;5.97;1.73;;;7.10;99.90;;;;;;5015061;28;20557;-68
2021/10/13 02:53:10;;;;;;;3.53;1.42;;;7.10;99.90;;;;;;5030288;28;20053;-68
2021/10/13 02:55:40;;;;;;;12.63;2.20;;;7.10;99.90;;;;;;5029823;28;20120;-68
2021/10/13 02:58:18;;;;;;;3.72;1.40;;;7.00;99.90;;;;;;5019382;28;20041;-68
2021/10/13 03:00:46;;;;;;;7.85;1.35;;;7.00;99.90;;;;;;5031181;28;20052;-68
2021/10/13 03:03:27;;;;;;;6.35;1.60;;;7.00;99.90;;;;;;5030442;28;20582;-68
2021/10/13 03:05:54;;;;;;;3.33;1.05;;;6.90;99.90;;;;;;5030116;28;20799;-68
2021/10/13 03:08:23;;;;;;;2.60;1.10;;;6.80;99.90;;;;;;5028542;28;20134;-68
2021/10/13 03:10:51;;;;;;;4.40;1.10;;;6.70;99.90;;;;;;5029915;28;20051;-68
2021/10/13 03:13:22;;;;;;;3.85;1.27;;;6.80;99.90;;;;;;5022346;28;20186;-68
2021/10/13 03:15:48;;;;;;;3.00;0.95;;;6.70;99.90;;;;;;5023059;28;20042;-68
2021/10/13 03:18:16;;;;;;;2.83;1.00;;;6.70;99.90;;;;;;5033173;28;20052;-68
2021/10/13 03:20:42;;;;;;;5.00;1.20;;;6.70;99.90;;;;;;5029816;28;20103;-68
2021/10/13 03:23:08;;;;;;;3.63;1.00;;;6.70;99.90;;;;;;5021817;28;20394;-68
2021/10/13 03:25:34;;;;;;;2.85;1.23;;;6.70;99.90;;;;;;5029803;28;20120;-68
2021/10/13 03:28:01;;;;;;;4.03;1.20;;;6.70;99.90;;;;;;5029655;28;20132;-68
2021/10/13 03:30:28;;;;;;;8.40;1.90;;;6.70;99.90;;;;;;5029429;28;20045;-68
2021/10/13 03:32:54;;;;;;;7.20;2.00;;;6.70;99.90;;;;;;5019242;28;20048;-68
2021/10/13 03:35:21;;;;;;;5.43;2.03;;;6.90;99.90;;;;;;5028990;28;20431;-68
2021/10/13 03:37:47;;;;;;;8.55;1.45;;;7.00;99.90;;;;;;5030536;28;20060;-68
2021/10/13 03:40:12;;;;;;;8.60;2.15;;;7.10;99.90;;;;;;5023824;28;20049;-68
2021/10/13 03:42:38;;;;;;;6.97;1.52;;;7.30;99.90;;;;;;5028827;28;20068;-68
2021/10/13 03:45:04;;;;;;;6.50;1.70;;;7.40;99.90;;;;;;5012476;28;20099;-68
2021/10/13 03:47:30;;;;;;;8.30;2.08;;;7.40;99.90;;;;;;5014112;28;20120;-68
2021/10/13 03:49:55;;;;;;;5.90;1.88;;;7.40;99.90;;;;;;5031075;28;20860;-68
2021/10/13 03:52:21;;;;;;;10.23;1.60;;;7.50;99.90;;;;;;5028810;28;20029;-68
2021/10/13 03:54:47;;;;;;;6.63;1.83;;;7.50;99.90;;;;;;5010460;28;20521;-68
2021/10/13 03:57:12;;;;;;;7.10;1.70;;;7.50;99.90;;;;;;5022555;28;20745;-68
2021/10/13 03:59:38;;;;;;;4.15;1.20;;;7.50;99.90;;;;;;5028944;28;20099;-68
2021/10/13 04:02:03;;;;;;;8.98;1.75;;;7.60;99.90;;;;;;5026218;28;20048;-68
2021/10/13 04:04:29;;;;;;;8.05;1.80;;;7.60;99.90;;;;;;5028132;28;20041;-68
2021/10/13 04:06:54;;;;;;;6.07;1.55;;;7.70;99.90;;;;;;5028351;28;20050;-69
2021/10/13 04:09:20;;;;;;;10.15;2.15;;;7.70;99.90;;;;;;5028232;28;20434;-68
2021/10/13 04:11:46;;;;;;;7.78;1.95;;;7.70;99.90;;;;;;5006687;28;20442;-68
2021/10/13 04:14:11;;;;;;;6.45;1.60;;;7.70;99.90;;;;;;5019728;28;20046;-68
2021/10/13 04:16:37;;;;;;;7.05;1.67;;;7.80;99.90;;;;;;5027322;28;20442;-68
2021/10/13 04:19:03;;;;;;;7.05;1.60;;;7.80;99.90;;;;;;5026553;28;20037;-68
2021/10/13 04:21:28;;;;;;;5.00;1.33;;;7.90;99.90;;;;;;5028761;28;20049;-68
2021/10/13 04:23:54;;;;;;;7.60;1.58;;;7.90;99.90;;;;;;5022644;28;20042;-68
2021/10/13 04:26:19;;;;;;;8.43;1.67;;;7.90;99.90;;;;;;5003736;28;20053;-68
2021/10/13 04:28:46;;;;;;;8.25;1.52;;;8.00;99.90;;;;;;5029342;28;20048;-68
2021/10/13 04:31:12;;;;;;;5.53;1.42;;;8.00;99.90;;;;;;5029585;28;20398;-68
2021/10/13 04:33:38;;;;;;;5.15;1.50;;;8.10;99.90;;;;;;5032026;28;20048;-68
2021/10/13 04:36:03;;;;;;;6.28;1.88;;;8.10;99.90;;;;;;5031616;28;20183;-69
2021/10/13 04:38:29;;;;;;;8.65;2.00;;;8.20;99.90;;;;;;5033139;28;20535;-69
2021/10/13 04:40:54;;;;;;;8.38;1.60;;;8.20;99.90;;;;;;5024420;28;20047;-68
2021/10/13 04:43:20;;;;;;;8.20;2.10;;;8.20;99.90;;;;;;5030606;28;20041;-68
2021/10/13 04:45:46;;;;;;;3.67;1.58;;;8.20;99.90;;;;;;5032033;28;20048;-68
2021/10/13 04:48:11;;;;;;;6.03;1.70;;;8.30;99.90;;;;;;5032861;28;20233;-69
2021/10/13 04:50:37;;;;;;;5.70;1.50;;;8.30;99.90;;;;;;5032800;28;20045;-69
2021/10/13 04:53:02;;;;;;;5.20;1.42;;;8.40;99.90;;;;;;5015421;28;20049;-69
2021/10/13 04:55:28;;;;;;;6.63;1.58;;;8.40;99.90;;;;;;5015185;28;20030;-69
2021/10/13 04:57:54;;;;;;;6.60;1.58;;;8.50;99.90;;;;;;5031396;28;20040;-69
2021/10/13 05:00:19;;;;;;;6.68;1.85;;;8.50;99.90;;;;;;5030141;28;20081;-69
2021/10/13 05:02:45;;;;;;;5.40;1.45;;;8.60;99.90;;;;;;5030194;28;20048;-68
2021/10/13 05:05:10;;;;;;;12.25;1.88;;;8.60;99.90;;;;;;5031125;28;20671;-68
2021/10/13 05:07:36;;;;;;;5.45;1.40;;;8.60;99.90;;;;;;5018340;28;20050;-69
2021/10/13 05:10:02;;;;;;;3.63;1.10;;;8.60;99.90;;;;;;5026533;28;20072;-68
2021/10/13 05:12:27;;;;;;;4.90;1.25;;;8.60;99.90;;;;;;5043610;28;20441;-68
2021/10/13 05:14:53;;;;;;;8.30;1.58;;;8.60;99.90;;;;;;5028192;28;20059;-68
2021/10/13 05:17:18;;;;;;;8.50;1.60;;;8.50;99.90;;;;;;5032987;28;20510;-68
2021/10/13 05:19:44;;;;;;;5.30;1.48;;;8.50;99.90;;;;;;5051845;28;20049;-68
2021/10/13 05:22:10;;;;;;;7.85;1.40;;;8.40;99.90;;;;;;5052012;28;20043;-68
2021/10/13 05:24:35;;;;;;;6.30;1.40;;;8.40;99.90;;;;;;5049604;28;20049;-68
2021/10/13 05:27:01;;;;;;;6.20;1.38;;;8.30;99.90;;;;;;5031528;28;20088;-68
2021/10/13 05:29:26;;;;;;;3.00;1.02;;;8.20;99.90;;;;;;5031951;28;20455;-68
2021/10/13 05:31:53;;;;;;;7.82;1.70;;;8.10;99.90;;;;;;5029797;28;20495;-68
2021/10/13 05:34:18;;;;;;;5.00;1.65;;;8.00;99.90;;;;;;5031153;28;20038;-68
2021/10/13 05:36:44;;;;;;;8.30;1.30;;;7.90;99.90;;;;;;5024360;28;20045;-68
2021/10/13 05:39:10;;;;;;;4.82;1.23;;;7.90;99.90;;;;;;4995784;28;20384;-68
2021/10/13 05:41:35;;;;;;;3.78;1.20;;;7.90;99.90;;;;;;5024667;28;20116;-68
2021/10/13 05:44:01;;;;;;;4.85;1.00;;;7.90;99.90;;;;;;5029469;28;20056;-68
2021/10/13 05:46:26;;;;;;;7.15;1.50;;;7.80;99.90;;;;;;5031093;28;20041;-68
2021/10/13 05:48:52;;;;;;;6.60;1.13;;;7.80;99.90;;;;;;5025842;28;20060;-68
2021/10/13 05:51:18;;;;;;;3.65;1.42;;;7.80;99.90;;;;;;5031296;28;20049;-68
2021/10/13 05:53:43;;;;;;;5.72;1.65;;;7.80;99.90;;;;;;5030673;28;20033;-68
2021/10/13 05:56:09;;;;;;;6.72;1.10;;;7.80;99.90;;;;;;5029486;28;20413;-68
2021/10/13 05:58:34;;;;;;;5.35;1.60;;;7.70;99.90;;;;;;5030432;28;20038;-68
2021/10/13 06:01:00;;;;;;;14.10;1.48;;;7.70;99.90;;;;;;5026195;28;20045;-68
2021/10/13 06:03:26;;;;;;;4.03;1.50;;;7.70;99.90;;;;;;5011499;28;20471;-68
2021/10/13 06:05:51;;;;;;;5.63;1.42;;;7.70;99.90;;;;;;5002731;28;20480;-68
2021/10/13 06:08:17;;;;;;;7.38;1.73;;;7.70;99.90;;;;;;5030963;28;20411;-69
2021/10/13 06:10:43;;;;;;;7.85;1.67;;;7.70;99.90;;;;;;5031015;28;20406;-69
2021/10/13 06:13:09;;;;;;;4.95;1.23;;;7.60;99.90;;;;;;5031338;28;20049;-68
2021/10/13 06:15:34;;;;;;;6.30;2.00;;;7.70;99.90;;;;;;5030470;28;20041;-68
2021/10/13 06:18:10;;;;;;;9.02;1.70;;;7.70;99.90;;;;;;5012695;28;20041;-68
2021/10/13 06:20:36;;;;;;;4.00;1.63;;;7.80;99.90;;;;;;5030365;28;20413;-69
2021/10/13 06:23:03;;;;;;;8.07;1.60;;;7.80;99.90;;;;;;4996477;23;20132;-62
2021/10/13 06:25:28;;;;;;;5.00;1.65;;;7.80;99.90;;;;;;4992793;28;20148;-62
2021/10/13 06:27:54;;;;;;;5.65;1.55;;;7.80;99.90;;;;;;5010656;28;20523;-62
2021/10/13 06:30:20;;;;;;;4.88;1.70;;;7.80;99.90;;;;;;5009899;28;20103;-61
2021/10/13 06:32:46;;;;;;;3.30;1.30;;;7.80;99.90;;;;;;5011253;28;20037;-61
2021/10/13 06:35:11;;;;;;;3.78;1.27;;;7.80;99.90;;;;;;5011536;28;20100;-61
2021/10/13 06:37:37;;;;;;;6.60;1.65;;;7.80;99.90;;;;;;5010105;28;20042;-62
2021/10/13 06:40:03;;;;;;;4.00;1.10;;;7.80;99.90;;;;;;4992642;28;20092;-62
2021/10/13 06:42:29;;;;;;;3.97;1.45;;;7.80;99.90;;;;;;5010719;28;20118;-62
2021/10/13 06:44:54;;;;;;;8.65;1.95;;;7.80;99.90;;;;;;5010714;28;20136;-61
2021/10/13 06:47:20;;;;;;;7.03;1.33;;;7.80;99.90;;;;;;4990523;28;20084;-61
2021/10/13 06:49:45;;;;;;;6.57;1.42;;;7.80;99.90;;;;;;5010200;28;20042;-61
2021/10/13 06:52:11;;;;;;;7.15;1.52;;;7.80;99.90;;;;;;5008663;28;20151;-61
2021/10/13 06:54:36;;;;;;;6.90;1.50;;;7.80;99.90;;;;;;5010963;28;20371;-62
2021/10/13 06:57:02;;;;;;;7.63;1.63;;;7.90;99.90;;;;;;4991693;28;20076;-62
2021/10/13 06:59:28;;;;;;;5.57;1.33;;;7.90;99.90;;;;;;5011938;28;20038;-62
2021/10/13 07:01:53;;;;;;;6.15;1.50;;;8.00;99.90;;;;;;4993285;28;20427;-62
2021/10/13 07:04:19;;;;;;;4.32;1.38;;;8.00;99.90;;;;;;4994071;28;20041;-62
2021/10/13 07:06:44;;;;;;;8.40;1.95;;;8.20;99.90;;;;;;5011922;28;20407;-62
2021/10/13 07:09:10;;;;;;;4.53;1.40;;;8.30;99.90;;;;;;5011746;28;20485;-62
2021/10/13 07:11:36;;;;;;;7.13;1.58;;;8.40;99.90;;;;;;5012075;28;20431;-62
2021/10/13 07:14:03;;;;;;;6.15;1.58;;;8.40;99.90;;;;;;4992999;28;20084;-61
2021/10/13 07:16:29;;;;;;;5.65;1.50;;;8.50;99.90;;;;;;5011515;28;20081;-62
2021/10/13 07:18:55;;;;;;;4.47;1.33;;;8.60;99.90;;;;;;5011361;28;20113;-62
2021/10/13 07:21:21;;;;;;;4.25;1.02;;;8.60;99.90;;;;;;5011497;28;20121;-62
2021/10/13 07:23:46;;;;;;;5.10;1.38;;;8.90;99.90;;;;;;5008239;28;20069;-62
2021/10/13 07:26:12;;;;;;;6.47;1.42;;;9.30;99.90;;;;;;5010297;28;20550;-62
2021/10/13 07:28:42;;;;;;;3.90;1.13;;;9.90;99.90;;;;;;5011404;28;20072;-62
2021/10/13 07:31:10;;;;;;;6.38;1.40;;;10.10;99.90;;;;;;5005657;28;20108;-62
2021/10/13 07:33:36;;;;;;;3.55;0.98;;;10.10;99.90;;;;;;5010658;28;20053;-62
2021/10/13 07:36:02;;;;;;;4.43;1.25;;;10.10;99.90;;;;;;4993568;28;20053;-63
2021/10/13 07:38:29;;;;;;;6.28;1.30;;;10.10;99.90;;;;;;4993512;28;20044;-62
2021/10/13 07:40:54;;;;;;;3.45;1.00;;;10.10;99.90;;;;;;5010580;28;20034;-62
2021/10/13 07:43:20;;;;;;;3.25;1.00;;;10.20;99.90;;;;;;5006232;28;20045;-62
2021/10/13 07:45:46;;;;;;;4.25;1.05;;;10.20;99.90;;;;;;4999018;28;20438;-62
2021/10/13 07:48:11;;;;;;;5.30;0.95;;;10.30;99.90;;;;;;5006148;28;20034;-62
2021/10/13 07:50:37;;;;;;;4.68;1.10;;;10.30;99.90;;;;;;5001272;28;20042;-62
2021/10/13 07:53:04;;;;;;;5.28;1.15;;;10.40;99.90;;;;;;5005669;28;20038;-62
2021/10/13 07:55:30;;;;;;;3.65;1.02;;;10.50;99.90;;;;;;4972357;28;20046;-63
2021/10/13 07:57:56;;;;;;;7.97;1.13;;;10.60;99.90;;;;;;4997292;28;20038;-62
2021/10/13 08:00:21;;;;;;;5.57;1.20;;;10.70;99.90;;;;;;4983684;28;20129;-63
2021/10/13 08:02:48;;;;;;;4.22;0.88;;;10.80;99.90;;;;;;4992527;28;20102;-63
2021/10/13 08:05:17;;;;;;;5.03;0.90;;;11.00;99.90;;;;;;5008412;28;20041;-64
2021/10/13 08:07:44;;;;;;;5.57;1.08;;;11.10;99.90;;;;;;5008714;28;20038;-64
2021/10/13 08:10:11;;;;;;;3.90;0.80;;;11.20;99.90;;;;;;5006355;28;20168;-63
2021/10/13 08:12:36;;;;;;;6.30;1.08;;;11.40;99.90;;;;;;5011991;28;20461;-62
2021/10/13 08:15:03;;;;;;;6.32;0.90;;;11.50;99.90;;;;;;4992829;28;20064;-63
2021/10/13 08:17:28;;;;;;;5.25;1.20;;;11.60;99.90;;;;;;4993578;28;20486;-63
2021/10/13 08:19:54;;;;;;;4.63;1.00;;;11.70;99.90;;;;;;5001912;28;20034;-63
2021/10/13 08:22:21;;;;;;;5.60;0.80;;;11.80;99.90;;;;;;4996302;28;20050;-63
2021/10/13 08:24:47;;;;;;;7.35;1.00;;;11.90;99.90;;;;;;5001317;28;20117;-63
2021/10/13 08:27:13;;;;;;;3.05;0.75;;;12.00;99.90;;;;;;5007372;28;20165;-64
2021/10/13 08:29:38;;;;;;;3.85;0.80;;;12.20;99.90;;;;;;4991955;28;20042;-63
2021/10/13 08:32:04;;;;;;;3.42;0.98;;;12.30;99.90;;;;;;4977638;28;20051;-63
2021/10/13 08:34:30;;;;;;;6.22;1.17;;;12.30;99.90;;;;;;5004007;28;21449;-64
2021/10/13 08:36:56;;;;;;;3.85;0.80;;;12.30;99.90;;;;;;4980645;28;20125;-64
2021/10/13 08:39:21;;;;;;;3.67;1.05;;;12.30;99.90;;;;;;4972535;28;20045;-64
2021/10/13 08:41:47;;;;;;;5.40;0.82;;;12.30;99.90;;;;;;4997482;28;20101;-64
2021/10/13 08:44:14;;;;;;;2.80;1.00;;;12.30;99.90;;;;;;4986385;28;20116;-64
2021/10/13 08:46:40;;;;;;;4.75;0.77;;;12.40;99.90;;;;;;4989465;28;20045;-64
2021/10/13 08:49:06;;;;;;;2.92;0.80;;;12.40;99.90;;;;;;5004809;28;20072;-64
2021/10/13 08:51:36;;;;;;;5.85;1.15;;;12.50;99.90;;;;;;4992479;28;20578;-64
2021/10/13 08:54:02;;;;;;;4.32;0.70;;;12.60;99.90;;;;;;4985786;28;20105;-64
2021/10/13 08:56:28;;;;;;;5.38;1.08;;;12.70;99.90;;;;;;4987778;28;20540;-65
2021/10/13 08:58:53;;;;;;;3.13;0.60;;;12.70;99.90;;;;;;4973092;28;20048;-64
2021/10/13 09:01:19;;;;;;;5.93;1.33;;;12.80;99.90;;;;;;5001934;28;20117;-65
2021/10/13 09:03:46;;;;;;;3.72;0.65;;;12.80;99.90;;;;;;4991160;28;20084;-65
2021/10/13 09:06:19;;;;;;;3.80;0.80;;;12.50;99.90;;;;;;4979362;28;20436;-64
2021/10/13 09:09:06;;;;;;;2.65;0.60;;;12.40;99.90;;;;;;4982561;28;20704;-64
2021/10/13 09:11:36;;;;;;;4.68;0.90;;;12.40;99.90;;;;;;4977098;28;20038;-65
2021/10/13 09:14:16;;;;;;;2.78;0.77;;;12.40;99.90;;;;;;4979892;28;20046;-64
2021/10/13 09:16:47;;;;;;;4.57;0.85;;;12.40;99.90;;;;;;4994267;28;20125;-64
2021/10/13 09:19:13;;;;;;;5.43;1.00;;;12.40;99.90;;;;;;4979166;28;20050;-64
2021/10/13 09:21:46;;;;;;;4.78;0.68;;;12.40;99.90;;;;;;4984080;28;20053;-64
2021/10/13 09:24:11;;;;;;;3.05;0.90;;;12.40;99.90;;;;;;4982428;28;20042;-63
2021/10/13 09:26:37;;;;;;;4.00;0.88;;;12.40;99.90;;;;;;4988371;28;20488;-63
2021/10/13 09:29:06;;;;;;;3.00;0.60;;;12.40;99.90;;;;;;4983548;28;20050;-64
2021/10/13 09:31:32;;;;;;;4.45;1.30;;;12.60;99.90;;;;;;4990128;28;20050;-63
2021/10/13 09:34:07;;;;;;;1.95;0.68;;;12.70;99.90;;;;;;4976819;28;20061;-63
2021/10/13 09:36:37;;;;;;;2.60;0.60;;;12.70;99.90;;;;;;4984617;28;20046;-62
2021/10/13 09:39:08;;;;;;;4.65;0.70;;;12.70;99.90;;;;;;4991998;28;20104;-63
2021/10/13 09:41:55;;;;;;;6.87;0.93;;;12.90;99.90;;;;;;4990419;28;20101;-63
2021/10/13 09:44:21;;;;;;;2.75;0.73;;;12.90;99.90;;;;;;4992283;28;20297;-64
2021/10/13 09:46:55;;;;;;;2.78;0.88;;;13.10;99.90;;;;;;4987739;28;20048;-63
2021/10/13 09:49:33;;;;;;;4.78;0.80;;;13.20;99.90;;;;;;4993491;28;20245;-64
2021/10/13 09:52:11;;;;;;;5.40;1.90;;;13.30;99.90;;;;;;4992364;28;20534;-64
2021/10/13 09:54:38;;;;;;;4.55;0.95;;;13.40;99.90;;;;;;4993421;28;20504;-64
2021/10/13 09:57:14;;;;;;;4.70;0.63;;;13.50;99.90;;;;;;4990719;28;20133;-63
2021/10/13 10:00:00;;;;;;;3.75;0.68;;;13.50;99.90;;;;;;4993204;28;20045;-64
2021/10/13 10:02:32;;;;;;;6.35;0.70;;;13.40;99.90;;;;;;4992326;28;20129;-64
2021/10/13 10:05:01;;;;;;;2.00;0.75;;;13.40;99.90;;;;;;4993427;28;20046;-63
2021/10/13 10:07:27;;;;;;;6.57;0.80;;;13.40;99.90;;;;;;4993624;28;20120;-64
2021/10/13 10:10:13;;;;;;;2.20;0.57;;;13.40;99.90;;;;;;4993362;28;20133;-64
2021/10/13 10:12:58;;;;;;;2.17;0.50;;;13.50;99.90;;;;;;4992204;28;20053;-63
2021/10/13 10:15:30;;;;;;;2.63;0.40;;;13.60;99.90;;;;;;4990290;28;20153;-63
2021/10/13 10:17:57;;;;;;;3.22;0.60;;;13.70;99.90;;;;;;4992158;28;20074;-63
2021/10/13 10:20:40;;;;;;;3.75;0.45;;;13.80;99.90;;;;;;4993161;28;20047;-63
2021/10/13 10:23:28;;;;;;;3.10;0.60;;;13.80;99.90;;;;;;5008614;28;20053;-63
2021/10/13 10:25:54;;;;;;;4.15;0.68;;;14.00;99.90;;;;;;4975504;28;20157;-63
2021/10/13 10:28:48;;;;;;;3.58;0.43;;;14.00;99.90;;;;;;4992711;28;20046;-64
2021/10/13 10:31:29;;;;;;;2.88;0.50;;;14.00;99.90;;;;;;4998341;28;20042;-63
2021/10/13 10:34:06;;;;;;;2.17;0.50;;;14.00;99.90;;;;;;4994618;28;20435;-64
2021/10/13 10:36:55;;;;;;;2.55;0.57;;;14.00;99.90;;;;;;5011965;28;20034;-64
2021/10/13 10:39:41;;;;;;;2.15;0.50;;;13.90;99.90;;;;;;5000166;28;20081;-64
2021/10/13 10:42:07;;;;;;;4.45;0.90;;;13.90;99.90;;;;;;5009422;28;20050;-64
2021/10/13 10:44:39;;;;;;;3.03;0.63;;;13.80;99.90;;;;;;5010140;28;20116;-64
2021/10/13 10:47:10;;;;;;;2.33;0.65;;;13.80;99.90;;;;;;5010702;28;20140;-64
2021/10/13 10:49:51;;;;;;;7.57;0.57;;;13.80;99.90;;;;;;5010877;28;20357;-64
2021/10/13 10:52:22;;;;;;;3.15;0.55;;;13.70;99.90;;;;;;5012426;28;20060;-64
2021/10/13 10:54:56;;;;;;;3.00;0.47;;;13.70;99.90;;;;;;4992724;28;20201;-64
2021/10/13 10:57:43;;;;;;;2.60;0.60;;;13.70;99.90;;;;;;4993942;28;20045;-64
2021/10/13 11:00:30;;;;;;;3.00;0.63;;;13.60;99.90;;;;;;4999223;28;20037;-64
2021/10/13 11:03:18;;;;;;;3.47;0.47;;;13.70;99.90;;;;;;5001339;28;20091;-64
2021/10/13 11:05:45;;;;;;;2.80;0.60;;;13.60;99.90;;;;;;5011550;28;20045;-64
2021/10/13 11:08:10;;;;;;;5.60;1.00;;;13.60;99.90;;;;;;5011224;28;20538;-64
2021/10/13 11:10:37;;;;;;;7.70;1.60;;;13.60;99.90;;;;;;4994121;28;20177;-64
2021/10/13 11:13:02;;;;;;;3.33;0.70;;;13.60;99.90;;;;;;5012110;28;20038;-64
2021/10/13 11:15:30;;;;;;;2.47;0.60;;;13.60;99.90;;;;;;5011727;28;20461;-64
2021/10/13 11:18:08;;;;;;;2.85;0.68;;;13.70;99.90;;;;;;5011787;28;20033;-64
2021/10/13 11:20:34;;;;;;;5.55;1.08;;;13.70;99.90;;;;;;5011372;28;20049;-64
2021/10/13 11:23:02;;;;;;;3.20;0.63;;;13.80;99.90;;;;;;4993748;28;20057;-64
2021/10/13 11:25:29;;;;;;;3.10;0.50;;;13.80;99.90;;;;;;4993932;28;20052;-64
2021/10/13 11:28:01;;;;;;;4.75;0.70;;;13.80;99.90;;;;;;4993131;28;20045;-64
2021/10/13 11:30:29;;;;;;;1.95;0.50;;;13.80;99.90;;;;;;5011768;28;20038;-64
2021/10/13 11:32:56;;;;;;;2.97;0.57;;;13.70;99.90;;;;;;5011553;28;20042;-64
2021/10/13 11:35:22;;;;;;;2.13;0.35;;;13.80;99.90;;;;;;4993621;28;20049;-64
2021/10/13 11:37:51;;;;;;;2.30;0.40;;;13.90;99.90;;;;;;5011680;28;20042;-64
2021/10/13 11:40:19;;;;;;;2.80;0.60;;;13.90;99.90;;;;;;5011983;28;20045;-64
2021/10/13 11:42:45;;;;;;;1.05;0.40;;;14.00;99.90;;;;;;4995368;28;20041;-64
2021/10/13 11:45:18;;;;;;;3.58;0.50;;;14.20;99.90;;;;;;5015254;28;20602;-64
2021/10/13 11:47:44;;;;;;;1.25;0.52;;;14.30;99.90;;;;;;4980795;28;20042;-63
2021/10/13 11:50:14;;;;;;;4.28;0.60;;;14.30;99.90;;;;;;4995756;28;20041;-65
2021/10/13 11:52:42;;;;;;;2.63;0.82;;;14.60;99.90;;;;;;5012914;28;20042;-64
2021/10/13 11:55:13;;;;;;;3.72;0.70;;;14.70;99.90;;;;;;5014060;28;20030;-64
2021/10/13 11:57:50;;;;;;;1.63;0.35;;;14.90;99.90;;;;;;4993585;28;20053;-63
2021/10/13 12:00:23;;;;;;;1.95;0.60;;;15.10;99.90;;;;;;5007271;28;20026;-64
2021/10/13 12:03:05;;;;;;;3.72;0.60;;;15.30;99.90;;;;;;4992213;28;20471;-64
2021/10/13 12:05:58;;;;;;;2.38;0.50;;;15.50;99.90;;;;;;5009465;28;20125;-64
2021/10/13 12:08:35;;;;;;;1.67;0.40;;;15.40;99.90;;;;;;5009819;28;20064;-64
2021/10/13 12:11:17;;;;;;;4.18;0.57;;;15.40;99.90;;;;;;5014703;28;20100;-64
2021/10/13 12:13:57;;;;;;;3.42;0.50;;;15.10;99.90;;;;;;5014019;28;20668;-64
2021/10/13 12:16:26;;;;;;;4.93;0.60;;;14.90;99.90;;;;;;5013483;28;20038;-64
2021/10/13 12:18:52;;;;;;;2.38;0.50;;;14.80;99.90;;;;;;5013816;28;20691;-64
2021/10/13 12:21:21;;;;;;;3.08;0.63;;;14.70;99.90;;;;;;5011060;28;20054;-64
2021/10/13 12:24:05;;;;;;;1.60;0.40;;;14.50;99.90;;;;;;5006258;28;20057;-64
2021/10/13 12:26:42;;;;;;;4.05;0.77;;;14.40;99.90;;;;;;5013643;28;20491;-64
2021/10/13 12:29:09;;;;;;;4.00;0.75;;;14.30;99.90;;;;;;5014342;28;20538;-64
2021/10/13 12:31:36;;;;;;;3.45;0.52;;;14.30;99.90;;;;;;4995788;28;20124;-63
2021/10/13 12:34:16;;;;;;;3.30;0.63;;;14.30;99.90;;;;;;5013442;28;20038;-64
2021/10/13 12:36:53;;;;;;;2.83;0.73;;;14.30;99.90;;;;;;5013823;28;20041;-63
2021/10/13 12:39:29;;;;;;;2.65;0.50;;;14.40;99.90;;;;;;5013239;28;20034;-64
2021/10/13 12:42:06;;;;;;;4.57;0.80;;;14.50;99.90;;;;;;5012775;28;20045;-65
2021/10/13 12:44:32;;;;;;;3.53;0.60;;;14.60;99.90;;;;;;5005894;28;20125;-64
2021/10/13 12:47:11;;;;;;;5.80;1.00;;;14.70;99.90;;;;;;5011258;28;20050;-65
2021/10/13 12:49:45;;;;;;;3.30;0.63;;;14.70;99.90;;;;;;5008125;28;20478;-64
2021/10/13 12:52:13;;;;;;;3.58;0.70;;;14.60;99.90;;;;;;5012600;28;20053;-64
2021/10/13 12:54:46;;;;;;;4.70;0.90;;;14.50;99.90;;;;;;5012954;28;20100;-63
2021/10/13 12:57:17;;;;;;;2.22;0.60;;;14.40;99.90;;;;;;5013596;28;20034;-64
2021/10/13 12:59:43;;;;;;;4.47;0.88;;;14.30;99.90;;;;;;4995157;28;20517;-63
2021/10/13 13:02:09;;;;;;;4.72;0.85;;;14.20;99.90;;;;;;4979714;28;20117;-64